PWSweather.com
Personal Weather Stations
Station Observations
WAIROAHB
Wairoa, Northern Hawkes Bay -NZ 4108

WairoaNorthern Hawkes Bay -NZ 4108

Lat: -39.04516934, Lon: 177.4263989

Elevation: 156

Station Type: WS3083

http://wairoa.net/weather/index.htm

High Low Average
Temperature 72.1°F22.3°C 58.3°F14.6°C 64.2°F17.9°C
Dew Point 63.9°F17.7°C 56.4°F13.6°C 60.1°F15.6°C
Winds 9.8 mph 15.8 kmh Calm Calm 2.0 mph E3.2 kmh E
Wind Gusts 13.6 mph21.9 kmh -- 5.0 mph8.0 kmh
Humidity 99% 61% 87%
Pressure 29.56 in1001.0 mb 29.46 in997.6 mb -
Precipitation 0.08 in2.0 mm - -
Hour Temp Dew Point Humidity Winds Wind Gusts Pressure Precip Precip Rate Daily Precip Total
12:00 AM 59.5°F15.3°C 59.3°F15.2°C 99% Calm Calm -- 29.53 in1000.0 mb 0.02 in0.5 mm 0.00 in0.0 mm 0.02 in0.5 mm
12:10 AM 59.7°F15.4°C 59.5°F15.3°C 99% Calm Calm -- 29.53 in1000.0 mb 0.02 in0.5 mm 0.00 in0.0 mm 0.02 in0.5 mm
12:20 AM 59.7°F15.4°C 59.5°F15.3°C 99% Calm Calm -- 29.53 in1000.0 mb 0.01 in0.3 mm 0.00 in0.0 mm 0.02 in0.5 mm
12:30 AM 59.7°F15.4°C 59.5°F15.3°C 99% Calm Calm -- 29.53 in1000.0 mb 0.00 in0.0 mm 0.00 in0.0 mm 0.02 in0.5 mm
12:40 AM 59.7°F15.4°C 59.5°F15.3°C 99% Calm Calm -- 29.53 in1000.0 mb 0.00 in0.0 mm 0.00 in0.0 mm 0.02 in0.5 mm
12:50 AM 59.9°F15.5°C 59.6°F15.3°C 99% Calm Calm -- 29.52 in999.7 mb 0.00 in0.0 mm 0.00 in0.0 mm 0.02 in0.5 mm
01:00 AM 59.9°F15.5°C 59.6°F15.3°C 99% Calm Calm 1.6 mph2.6 kmh 29.52 in999.7 mb 0.00 in0.0 mm 0.00 in0.0 mm 0.02 in0.5 mm
01:10 AM 59.7°F15.4°C 59.5°F15.3°C 99% Calm Calm 3.8 mph6.1 kmh 29.52 in999.7 mb 0.00 in0.0 mm 0.00 in0.0 mm 0.02 in0.5 mm
01:20 AM 59.7°F15.4°C 59.5°F15.3°C 99% Calm Calm 1.6 mph2.6 kmh 29.52 in999.7 mb 0.00 in0.0 mm 0.00 in0.0 mm 0.02 in0.5 mm
01:30 AM 59.7°F15.4°C 59.5°F15.3°C 99% Calm Calm -- 29.52 in999.7 mb 0.00 in0.0 mm 0.00 in0.0 mm 0.02 in0.5 mm
01:40 AM 59.5°F15.3°C 59.3°F15.2°C 99% Calm Calm 3.8 mph6.1 kmh 29.52 in999.7 mb 0.00 in0.0 mm 0.00 in0.0 mm 0.02 in0.5 mm
01:50 AM 59.5°F15.3°C 59.3°F15.2°C 99% 0.7 mph NNW1.1 kmh NNW 3.1 mph5.0 kmh 29.51 in999.3 mb 0.00 in0.0 mm 0.00 in0.0 mm 0.02 in0.5 mm
02:00 AM 59.4°F15.2°C 59.1°F15.1°C 99% 1.6 mph NW2.6 kmh NW 3.8 mph6.1 kmh 29.51 in999.3 mb 0.00 in0.0 mm 0.00 in0.0 mm 0.02 in0.5 mm
02:10 AM 59.4°F15.2°C 59.1°F15.1°C 99% Calm Calm 2.2 mph3.5 kmh 29.51 in999.3 mb 0.00 in0.0 mm 0.00 in0.0 mm 0.02 in0.5 mm
02:20 AM 59.4°F15.2°C 59.1°F15.1°C 99% 1.6 mph NW2.6 kmh NW 4.5 mph7.2 kmh 29.51 in999.3 mb 0.00 in0.0 mm 0.00 in0.0 mm 0.02 in0.5 mm
02:30 AM 59.4°F15.2°C 59.1°F15.1°C 99% Calm Calm 4.5 mph7.2 kmh 29.50 in999.0 mb 0.00 in0.0 mm 0.00 in0.0 mm 0.02 in0.5 mm
02:40 AM 59.2°F15.1°C 58.9°F14.9°C 99% Calm Calm 3.8 mph6.1 kmh 29.50 in999.0 mb 0.00 in0.0 mm 0.00 in0.0 mm 0.02 in0.5 mm
02:50 AM 59.2°F15.1°C 58.9°F14.9°C 99% Calm Calm -- 29.50 in999.0 mb 0.00 in0.0 mm 0.00 in0.0 mm 0.02 in0.5 mm
03:00 AM 59.2°F15.1°C 58.9°F14.9°C 99% Calm Calm -- 29.50 in999.0 mb 0.00 in0.0 mm 0.00 in0.0 mm 0.02 in0.5 mm
03:10 AM 59.2°F15.1°C 58.9°F14.9°C 99% Calm Calm -- 29.50 in999.0 mb 0.00 in0.0 mm 0.00 in0.0 mm 0.02 in0.5 mm
03:20 AM 59.2°F15.1°C 58.9°F14.9°C 99% Calm Calm -- 29.50 in999.0 mb 0.00 in0.0 mm 0.00 in0.0 mm 0.02 in0.5 mm
03:30 AM 59.0°F15.0°C 58.7°F14.8°C 99% Calm Calm -- 29.50 in999.0 mb 0.00 in0.0 mm 0.00 in0.0 mm 0.02 in0.5 mm
03:40 AM 58.8°F14.9°C 58.6°F14.8°C 99% Calm Calm -- 29.50 in999.0 mb 0.00 in0.0 mm 0.00 in0.0 mm 0.02 in0.5 mm
03:50 AM 58.8°F14.9°C 58.6°F14.8°C 99% Calm Calm -- 29.50 in999.0 mb 0.00 in0.0 mm 0.00 in0.0 mm 0.02 in0.5 mm
04:00 AM 58.8°F14.9°C 58.6°F14.8°C 99% Calm Calm -- 29.49 in998.6 mb 0.00 in0.0 mm 0.00 in0.0 mm 0.02 in0.5 mm
04:10 AM 58.6°F14.8°C 58.4°F14.7°C 99% Calm Calm -- 29.50 in999.0 mb 0.00 in0.0 mm 0.00 in0.0 mm 0.02 in0.5 mm
04:20 AM 58.3°F14.6°C 58.0°F14.4°C 99% Calm Calm -- 29.50 in999.0 mb 0.00 in0.0 mm 0.00 in0.0 mm 0.02 in0.5 mm
04:30 AM 58.6°F14.8°C 58.4°F14.7°C 99% Calm Calm -- 29.50 in999.0 mb 0.00 in0.0 mm 0.00 in0.0 mm 0.02 in0.5 mm
04:40 AM 58.6°F14.8°C 58.4°F14.7°C 99% Calm Calm -- 29.50 in999.0 mb 0.00 in0.0 mm 0.00 in0.0 mm 0.02 in0.5 mm
04:50 AM 58.3°F14.6°C 58.0°F14.4°C 99% Calm Calm 0.7 mph1.1 kmh 29.50 in999.0 mb 0.00 in0.0 mm 0.00 in0.0 mm 0.02 in0.5 mm
05:00 AM 58.3°F14.6°C 58.0°F14.4°C 99% Calm Calm -- 29.51 in999.3 mb 0.00 in0.0 mm 0.00 in0.0 mm 0.02 in0.5 mm
05:10 AM 58.3°F14.6°C 58.0°F14.4°C 99% Calm Calm -- 29.51 in999.3 mb 0.00 in0.0 mm 0.00 in0.0 mm 0.02 in0.5 mm
05:20 AM 58.3°F14.6°C 58.0°F14.4°C 99% Calm Calm -- 29.52 in999.7 mb 0.00 in0.0 mm 0.00 in0.0 mm 0.02 in0.5 mm
05:30 AM 58.3°F14.6°C 58.0°F14.4°C 99% Calm Calm 3.8 mph6.1 kmh 29.52 in999.7 mb 0.00 in0.0 mm 0.00 in0.0 mm 0.02 in0.5 mm
05:40 AM 58.3°F14.6°C 58.0°F14.4°C 99% Calm Calm -- 29.52 in999.7 mb 0.00 in0.0 mm 0.00 in0.0 mm 0.02 in0.5 mm
05:50 AM 58.8°F14.9°C 58.6°F14.8°C 99% Calm Calm -- 29.52 in999.7 mb 0.00 in0.0 mm 0.00 in0.0 mm 0.02 in0.5 mm
06:00 AM 59.9°F15.5°C 59.6°F15.3°C 99% Calm Calm -- 29.52 in999.7 mb 0.00 in0.0 mm 0.00 in0.0 mm 0.02 in0.5 mm
06:10 AM 61.0°F16.1°C 60.4°F15.8°C 98% Calm Calm -- 29.52 in999.7 mb 0.00 in0.0 mm 0.00 in0.0 mm 0.02 in0.5 mm
06:20 AM 61.2°F16.2°C 60.6°F15.9°C 98% Calm Calm -- 29.53 in1000.0 mb 0.00 in0.0 mm 0.00 in0.0 mm 0.02 in0.5 mm
06:30 AM 60.8°F16.0°C 60.2°F15.7°C 98% 0.7 mph NW1.1 kmh NW 3.8 mph6.1 kmh 29.54 in1000.3 mb 0.00 in0.0 mm 0.00 in0.0 mm 0.02 in0.5 mm
06:40 AM 60.6°F15.9°C 60.4°F15.8°C 99% 2.2 mph NW3.5 kmh NW 6.0 mph9.7 kmh 29.54 in1000.3 mb 0.00 in0.0 mm 0.00 in0.0 mm 0.02 in0.5 mm
06:50 AM 60.4°F15.8°C 60.2°F15.7°C 99% 2.2 mph NW3.5 kmh NW 6.9 mph11.1 kmh 29.54 in1000.3 mb 0.00 in0.0 mm 0.00 in0.0 mm 0.02 in0.5 mm
07:00 AM 60.4°F15.8°C 60.2°F15.7°C 99% Calm Calm 4.5 mph7.2 kmh 29.54 in1000.3 mb 0.00 in0.0 mm 0.00 in0.0 mm 0.02 in0.5 mm
07:10 AM 61.2°F16.2°C 60.3°F15.7°C 97% Calm Calm -- 29.54 in1000.3 mb 0.00 in0.0 mm 0.00 in0.0 mm 0.02 in0.5 mm
07:20 AM 61.9°F16.6°C 60.7°F15.9°C 96% Calm Calm 3.1 mph5.0 kmh 29.54 in1000.3 mb 0.00 in0.0 mm 0.00 in0.0 mm 0.02 in0.5 mm
07:30 AM 63.5°F17.5°C 61.5°F16.4°C 93% Calm Calm -- 29.54 in1000.3 mb 0.00 in0.0 mm 0.00 in0.0 mm 0.02 in0.5 mm
07:40 AM 64.4°F18.0°C 60.5°F15.8°C 87% Calm Calm 3.8 mph6.1 kmh 29.55 in1000.7 mb 0.00 in0.0 mm 0.00 in0.0 mm 0.02 in0.5 mm
07:50 AM 64.2°F17.9°C 58.3°F14.6°C 81% 3.8 mph SW6.1 kmh SW 6.0 mph9.7 kmh 29.55 in1000.7 mb 0.00 in0.0 mm 0.00 in0.0 mm 0.02 in0.5 mm
08:00 AM 63.7°F17.6°C 57.8°F14.3°C 81% 3.8 mph SW6.1 kmh SW 7.6 mph12.2 kmh 29.55 in1000.7 mb 0.00 in0.0 mm 0.00 in0.0 mm 0.02 in0.5 mm
08:10 AM 63.7°F17.6°C 57.8°F14.3°C 81% 3.1 mph SW5.0 kmh SW 5.4 mph8.7 kmh 29.55 in1000.7 mb 0.00 in0.0 mm 0.00 in0.0 mm 0.02 in0.5 mm
08:20 AM 64.0°F17.8°C 57.1°F13.9°C 78% 1.6 mph W2.6 kmh W 7.6 mph12.2 kmh 29.55 in1000.7 mb 0.00 in0.0 mm 0.00 in0.0 mm 0.02 in0.5 mm
08:30 AM 64.9°F18.3°C 57.6°F14.2°C 77% 6.0 mph SW9.7 kmh SW 8.3 mph13.4 kmh 29.55 in1000.7 mb 0.00 in0.0 mm 0.00 in0.0 mm 0.02 in0.5 mm
08:40 AM 65.3°F18.5°C 57.2°F14.0°C 75% 3.8 mph SW6.1 kmh SW 7.6 mph12.2 kmh 29.55 in1000.7 mb 0.00 in0.0 mm 0.00 in0.0 mm 0.02 in0.5 mm
08:50 AM 65.8°F18.8°C 57.7°F14.3°C 75% 4.5 mph SW7.2 kmh SW 6.0 mph9.7 kmh 29.55 in1000.7 mb 0.01 in0.3 mm 0.06 in1.5 mm 0.04 in1.0 mm
09:00 AM 66.0°F18.9°C 57.9°F14.4°C 75% 0.7 mph NNW1.1 kmh NNW 6.9 mph11.1 kmh 29.55 in1000.7 mb 0.01 in0.3 mm 0.00 in0.0 mm 0.04 in1.0 mm
09:10 AM 65.8°F18.8°C 57.3°F14.1°C 74% 1.6 mph WSW2.6 kmh WSW 6.0 mph9.7 kmh 29.55 in1000.7 mb 0.01 in0.3 mm 0.00 in0.0 mm 0.04 in1.0 mm
09:20 AM 68.7°F20.4°C 59.7°F15.4°C 73% Calm Calm 3.1 mph5.0 kmh 29.55 in1000.7 mb 0.01 in0.3 mm 0.00 in0.0 mm 0.04 in1.0 mm
09:30 AM 69.4°F20.8°C 59.3°F15.2°C 70% 2.2 mph NNW3.5 kmh NNW 4.5 mph7.2 kmh 29.55 in1000.7 mb 0.01 in0.3 mm 0.00 in0.0 mm 0.04 in1.0 mm
09:40 AM 70.3°F21.3°C 58.5°F14.7°C 66% 2.2 mph SE3.5 kmh SE 6.0 mph9.7 kmh 29.55 in1000.7 mb 0.01 in0.3 mm 0.00 in0.0 mm 0.04 in1.0 mm
09:50 AM 71.8°F22.1°C 59.0°F15.0°C 64% 2.2 mph ESE3.5 kmh ESE 5.4 mph8.7 kmh 29.54 in1000.3 mb 0.00 in0.0 mm 0.00 in0.0 mm 0.04 in1.0 mm
10:00 AM 71.4°F21.9°C 58.6°F14.8°C 64% 3.1 mph ESE5.0 kmh ESE 6.9 mph11.1 kmh 29.54 in1000.3 mb 0.00 in0.0 mm 0.00 in0.0 mm 0.04 in1.0 mm
10:10 AM 70.9°F21.6°C 59.0°F15.0°C 66% 3.1 mph SE5.0 kmh SE 7.6 mph12.2 kmh 29.54 in1000.3 mb 0.00 in0.0 mm 0.00 in0.0 mm 0.04 in1.0 mm
10:20 AM 70.5°F21.4°C 59.5°F15.3°C 68% 5.4 mph SE8.7 kmh SE 7.6 mph12.2 kmh 29.54 in1000.3 mb 0.00 in0.0 mm 0.00 in0.0 mm 0.04 in1.0 mm
10:30 AM 69.3°F20.7°C 59.5°F15.3°C 71% 2.2 mph SSE3.5 kmh SSE 7.6 mph12.2 kmh 29.54 in1000.3 mb 0.00 in0.0 mm 0.00 in0.0 mm 0.04 in1.0 mm
10:40 AM 68.9°F20.5°C 59.9°F15.5°C 73% 5.4 mph W8.7 kmh W 8.3 mph13.4 kmh 29.54 in1000.3 mb 0.00 in0.0 mm 0.00 in0.0 mm 0.04 in1.0 mm
10:50 AM 70.0°F21.1°C 60.2°F15.7°C 71% 3.1 mph E5.0 kmh E 6.9 mph11.1 kmh 29.53 in1000.0 mb 0.00 in0.0 mm 0.00 in0.0 mm 0.04 in1.0 mm
11:00 AM 70.5°F21.4°C 60.3°F15.7°C 70% 3.8 mph ESE6.1 kmh ESE 7.6 mph12.2 kmh 29.53 in1000.0 mb 0.00 in0.0 mm 0.00 in0.0 mm 0.04 in1.0 mm
11:10 AM 70.5°F21.4°C 60.7°F15.9°C 71% 5.4 mph SE8.7 kmh SE 8.3 mph13.4 kmh 29.52 in999.7 mb 0.00 in0.0 mm 0.00 in0.0 mm 0.04 in1.0 mm
11:20 AM 70.2°F21.2°C 59.9°F15.5°C 70% 5.4 mph SE8.7 kmh SE 7.6 mph12.2 kmh 29.52 in999.7 mb 0.00 in0.0 mm 0.00 in0.0 mm 0.04 in1.0 mm
11:30 AM 70.3°F21.3°C 60.9°F16.1°C 72% 3.8 mph NE6.1 kmh NE 8.3 mph13.4 kmh 29.52 in999.7 mb 0.00 in0.0 mm 0.00 in0.0 mm 0.04 in1.0 mm
11:40 AM 70.5°F21.4°C 60.3°F15.7°C 70% 5.4 mph ENE8.7 kmh ENE 10.7 mph17.2 kmh 29.52 in999.7 mb 0.00 in0.0 mm 0.00 in0.0 mm 0.04 in1.0 mm
11:50 AM 69.6°F20.9°C 60.6°F15.9°C 73% 8.3 mph NE13.4 kmh NE 10.7 mph17.2 kmh 29.52 in999.7 mb 0.00 in0.0 mm 0.00 in0.0 mm 0.04 in1.0 mm
12:00 PM 69.6°F20.9°C 60.6°F15.9°C 73% 5.4 mph SE8.7 kmh SE 13.6 mph21.9 kmh 29.52 in999.7 mb 0.00 in0.0 mm 0.00 in0.0 mm 0.04 in1.0 mm
12:10 PM 69.8°F21.0°C 60.4°F15.8°C 72% 3.8 mph SSE6.1 kmh SSE 11.4 mph18.3 kmh 29.52 in999.7 mb 0.00 in0.0 mm 0.00 in0.0 mm 0.04 in1.0 mm
12:20 PM 70.5°F21.4°C 60.3°F15.7°C 70% 5.4 mph WSW8.7 kmh WSW 9.8 mph15.8 kmh 29.51 in999.3 mb 0.00 in0.0 mm 0.00 in0.0 mm 0.04 in1.0 mm
12:30 PM 70.2°F21.2°C 59.9°F15.5°C 70% 7.6 mph SE12.2 kmh SE 11.4 mph18.3 kmh 29.51 in999.3 mb 0.00 in0.0 mm 0.00 in0.0 mm 0.04 in1.0 mm
12:40 PM 69.3°F20.7°C 60.6°F15.9°C 74% 6.0 mph SE9.7 kmh SE 13.0 mph20.9 kmh 29.51 in999.3 mb 0.00 in0.0 mm 0.00 in0.0 mm 0.04 in1.0 mm
12:50 PM 71.1°F21.7°C 61.6°F16.4°C 72% 5.4 mph SSE8.7 kmh SSE 9.2 mph14.8 kmh 29.50 in999.0 mb 0.00 in0.0 mm 0.00 in0.0 mm 0.04 in1.0 mm
01:00 PM 69.8°F21.0°C 60.4°F15.8°C 72% 6.9 mph SE11.1 kmh SE 13.0 mph20.9 kmh 29.50 in999.0 mb 0.00 in0.0 mm 0.00 in0.0 mm 0.04 in1.0 mm
01:10 PM 68.9°F20.5°C 60.3°F15.7°C 74% 3.1 mph ESE5.0 kmh ESE 11.4 mph18.3 kmh 29.50 in999.0 mb 0.00 in0.0 mm 0.00 in0.0 mm 0.04 in1.0 mm
01:20 PM 69.3°F20.7°C 60.6°F15.9°C 74% 3.8 mph E6.1 kmh E 8.3 mph13.4 kmh 29.51 in999.3 mb 0.00 in0.0 mm 0.00 in0.0 mm 0.04 in1.0 mm
01:30 PM 69.3°F20.7°C 60.6°F15.9°C 74% 3.1 mph SE5.0 kmh SE 8.3 mph13.4 kmh 29.50 in999.0 mb 0.00 in0.0 mm 0.00 in0.0 mm 0.04 in1.0 mm
01:40 PM 68.2°F20.1°C 60.4°F15.8°C 76% 9.8 mph SE15.8 kmh SE 13.0 mph20.9 kmh 29.50 in999.0 mb 0.00 in0.0 mm 0.00 in0.0 mm 0.04 in1.0 mm
01:50 PM 68.4°F20.2°C 61.3°F16.3°C 78% 5.4 mph SE8.7 kmh SE 13.0 mph20.9 kmh 29.49 in998.6 mb 0.00 in0.0 mm 0.00 in0.0 mm 0.04 in1.0 mm
02:00 PM 70.0°F21.1°C 61.0°F16.1°C 73% 6.9 mph SE11.1 kmh SE 13.6 mph21.9 kmh 29.49 in998.6 mb 0.00 in0.0 mm 0.00 in0.0 mm 0.04 in1.0 mm
02:10 PM 68.9°F20.5°C 61.0°F16.1°C 76% 6.0 mph SE9.7 kmh SE 11.4 mph18.3 kmh 29.49 in998.6 mb 0.00 in0.0 mm 0.00 in0.0 mm 0.04 in1.0 mm
02:20 PM 68.7°F20.4°C 60.9°F16.1°C 76% 4.5 mph ESE7.2 kmh ESE 9.8 mph15.8 kmh 29.48 in998.3 mb 0.00 in0.0 mm 0.00 in0.0 mm 0.04 in1.0 mm
02:30 PM 69.1°F20.6°C 61.2°F16.2°C 76% 3.1 mph SE5.0 kmh SE 9.8 mph15.8 kmh 29.48 in998.3 mb 0.00 in0.0 mm 0.00 in0.0 mm 0.04 in1.0 mm
02:40 PM 68.7°F20.4°C 60.5°F15.8°C 75% 5.4 mph E8.7 kmh E 11.4 mph18.3 kmh 29.48 in998.3 mb 0.00 in0.0 mm 0.00 in0.0 mm 0.04 in1.0 mm
02:50 PM 68.5°F20.3°C 61.1°F16.2°C 77% 5.4 mph SE8.7 kmh SE 10.7 mph17.2 kmh 29.48 in998.3 mb 0.00 in0.0 mm 0.00 in0.0 mm 0.04 in1.0 mm
03:00 PM 68.4°F20.2°C 60.9°F16.1°C 77% 5.4 mph SE8.7 kmh SE 9.8 mph15.8 kmh 29.47 in998.0 mb 0.00 in0.0 mm 0.00 in0.0 mm 0.04 in1.0 mm
03:10 PM 68.5°F20.3°C 61.4°F16.3°C 78% 6.9 mph SE11.1 kmh SE 9.8 mph15.8 kmh 29.47 in998.0 mb 0.00 in0.0 mm 0.00 in0.0 mm 0.04 in1.0 mm
03:20 PM 67.6°F19.8°C 61.3°F16.3°C 80% 3.8 mph ESE6.1 kmh ESE 9.8 mph15.8 kmh 29.47 in998.0 mb 0.00 in0.0 mm 0.00 in0.0 mm 0.04 in1.0 mm
03:30 PM 68.4°F20.2°C 62.0°F16.7°C 80% 1.6 mph SE2.6 kmh SE 6.0 mph9.7 kmh 29.47 in998.0 mb 0.00 in0.0 mm 0.00 in0.0 mm 0.04 in1.0 mm
03:40 PM 69.8°F21.0°C 61.5°F16.4°C 75% 1.6 mph SE2.6 kmh SE 9.2 mph14.8 kmh 29.46 in997.6 mb 0.00 in0.0 mm 0.00 in0.0 mm 0.04 in1.0 mm
03:50 PM 70.3°F21.3°C 62.1°F16.7°C 75% 6.9 mph SE11.1 kmh SE 10.7 mph17.2 kmh 29.46 in997.6 mb 0.00 in0.0 mm 0.00 in0.0 mm 0.04 in1.0 mm
04:00 PM 70.0°F21.1°C 61.3°F16.3°C 74% 6.9 mph SE11.1 kmh SE 12.1 mph19.5 kmh 29.47 in998.0 mb 0.00 in0.0 mm 0.00 in0.0 mm 0.04 in1.0 mm
04:10 PM 69.8°F21.0°C 59.6°F15.3°C 70% 4.5 mph SE7.2 kmh SE 13.0 mph20.9 kmh 29.47 in998.0 mb 0.00 in0.0 mm 0.00 in0.0 mm 0.04 in1.0 mm
04:20 PM 70.5°F21.4°C 56.4°F13.6°C 61% 5.4 mph N8.7 kmh N 10.7 mph17.2 kmh 29.48 in998.3 mb 0.00 in0.0 mm 0.00 in0.0 mm 0.04 in1.0 mm
04:40 PM 71.6°F22.0°C 62.1°F16.7°C 72% 6.9 mph SE11.1 kmh SE 11.4 mph18.3 kmh 29.46 in997.6 mb 0.00 in0.0 mm 0.00 in0.0 mm 0.04 in1.0 mm
04:50 PM 68.5°F20.3°C 59.9°F15.5°C 74% 3.1 mph SE5.0 kmh SE 11.4 mph18.3 kmh 29.46 in997.6 mb 0.00 in0.0 mm 0.00 in0.0 mm 0.04 in1.0 mm
05:00 PM 68.5°F20.3°C 61.1°F16.2°C 77% 3.8 mph ESE6.1 kmh ESE 9.8 mph15.8 kmh 29.46 in997.6 mb 0.00 in0.0 mm 0.00 in0.0 mm 0.04 in1.0 mm
05:10 PM 70.2°F21.2°C 62.6°F17.0°C 77% 6.0 mph ESE9.7 kmh ESE 9.8 mph15.8 kmh 29.46 in997.6 mb 0.00 in0.0 mm 0.00 in0.0 mm 0.04 in1.0 mm
05:20 PM 72.0°F22.2°C 62.5°F16.9°C 72% 3.8 mph SSW6.1 kmh SSW 9.8 mph15.8 kmh 29.46 in997.6 mb 0.00 in0.0 mm 0.00 in0.0 mm 0.04 in1.0 mm
05:30 PM 72.1°F22.3°C 62.6°F17.0°C 72% 3.1 mph ESE5.0 kmh ESE 9.2 mph14.8 kmh 29.46 in997.6 mb 0.00 in0.0 mm 0.00 in0.0 mm 0.04 in1.0 mm
05:40 PM 72.1°F22.3°C 62.6°F17.0°C 72% 4.5 mph SE7.2 kmh SE 7.6 mph12.2 kmh 29.46 in997.6 mb 0.00 in0.0 mm 0.00 in0.0 mm 0.04 in1.0 mm
05:50 PM 70.2°F21.2°C 63.0°F17.2°C 78% 3.8 mph SSE6.1 kmh SSE 6.0 mph9.7 kmh 29.46 in997.6 mb 0.00 in0.0 mm 0.00 in0.0 mm 0.04 in1.0 mm
06:00 PM 69.6°F20.9°C 63.9°F17.7°C 82% 2.2 mph SE3.5 kmh SE 5.4 mph8.7 kmh 29.46 in997.6 mb 0.00 in0.0 mm 0.00 in0.0 mm 0.04 in1.0 mm
06:10 PM 69.3°F20.7°C 63.9°F17.7°C 83% 2.2 mph E3.5 kmh E 4.5 mph7.2 kmh 29.46 in997.6 mb 0.00 in0.0 mm 0.00 in0.0 mm 0.04 in1.0 mm
06:20 PM 68.7°F20.4°C 63.4°F17.4°C 83% 2.2 mph E3.5 kmh E 5.4 mph8.7 kmh 29.46 in997.6 mb 0.00 in0.0 mm 0.00 in0.0 mm 0.04 in1.0 mm
06:30 PM 68.0°F20.0°C 63.7°F17.6°C 86% 6.9 mph NNW11.1 kmh NNW 9.8 mph15.8 kmh 29.47 in998.0 mb 0.00 in0.0 mm 0.00 in0.0 mm 0.04 in1.0 mm
06:40 PM 64.8°F18.2°C 62.7°F17.1°C 93% 3.8 mph NNW6.1 kmh NNW 12.1 mph19.5 kmh 29.47 in998.0 mb 0.04 in1.0 mm 0.24 in6.1 mm 0.07 in1.8 mm
06:50 PM 63.3°F17.4°C 61.9°F16.6°C 95% 3.8 mph NNW6.1 kmh NNW 10.7 mph17.2 kmh 29.47 in998.0 mb 0.05 in1.3 mm 0.06 in1.5 mm 0.08 in2.0 mm
07:00 PM 63.0°F17.2°C 61.8°F16.6°C 96% 2.2 mph NNW3.5 kmh NNW 9.8 mph15.8 kmh 29.48 in998.3 mb 0.05 in1.3 mm 0.00 in0.0 mm 0.08 in2.0 mm
07:10 PM 62.8°F17.1°C 61.9°F16.6°C 97% Calm Calm 6.0 mph9.7 kmh 29.48 in998.3 mb 0.05 in1.3 mm 0.00 in0.0 mm 0.08 in2.0 mm
07:40 PM 62.4°F16.9°C 61.9°F16.6°C 98% 2.2 mph N3.5 kmh N 3.8 mph6.1 kmh 29.50 in999.0 mb 0.01 in0.3 mm 0.00 in0.0 mm 0.08 in2.0 mm
07:50 PM 62.1°F16.7°C 61.5°F16.4°C 98% 1.6 mph N2.6 kmh N 3.8 mph6.1 kmh 29.50 in999.0 mb 0.00 in0.0 mm 0.00 in0.0 mm 0.08 in2.0 mm
08:00 PM 61.9°F16.6°C 61.3°F16.3°C 98% 2.2 mph NNE3.5 kmh NNE 4.5 mph7.2 kmh 29.51 in999.3 mb 0.00 in0.0 mm 0.00 in0.0 mm 0.08 in2.0 mm
08:10 PM 61.9°F16.6°C 61.3°F16.3°C 98% Calm Calm 3.1 mph5.0 kmh 29.51 in999.3 mb 0.00 in0.0 mm 0.00 in0.0 mm 0.08 in2.0 mm
08:20 PM 61.5°F16.4°C 61.0°F16.1°C 98% Calm Calm -- 29.52 in999.7 mb 0.00 in0.0 mm 0.00 in0.0 mm 0.08 in2.0 mm
08:30 PM 61.3°F16.3°C 60.8°F16.0°C 98% Calm Calm -- 29.52 in999.7 mb 0.00 in0.0 mm 0.00 in0.0 mm 0.08 in2.0 mm
08:40 PM 61.3°F16.3°C 60.8°F16.0°C 98% Calm Calm -- 29.53 in1000.0 mb 0.00 in0.0 mm 0.00 in0.0 mm 0.08 in2.0 mm
08:50 PM 61.3°F16.3°C 60.8°F16.0°C 98% 2.2 mph N3.5 kmh N 3.8 mph6.1 kmh 29.53 in1000.0 mb 0.00 in0.0 mm 0.00 in0.0 mm 0.08 in2.0 mm
09:00 PM 61.2°F16.2°C 60.6°F15.9°C 98% 1.6 mph NNW2.6 kmh NNW 4.5 mph7.2 kmh 29.54 in1000.3 mb 0.00 in0.0 mm 0.00 in0.0 mm 0.08 in2.0 mm
09:10 PM 61.2°F16.2°C 60.6°F15.9°C 98% 2.2 mph NW3.5 kmh NW 3.8 mph6.1 kmh 29.54 in1000.3 mb 0.00 in0.0 mm 0.00 in0.0 mm 0.08 in2.0 mm
09:20 PM 61.2°F16.2°C 60.6°F15.9°C 98% 3.1 mph NW5.0 kmh NW 6.0 mph9.7 kmh 29.55 in1000.7 mb 0.00 in0.0 mm 0.00 in0.0 mm 0.08 in2.0 mm
09:30 PM 61.0°F16.1°C 60.4°F15.8°C 98% 1.6 mph NW2.6 kmh NW 5.4 mph8.7 kmh 29.55 in1000.7 mb 0.00 in0.0 mm 0.00 in0.0 mm 0.08 in2.0 mm
09:40 PM 61.0°F16.1°C 60.4°F15.8°C 98% Calm Calm 4.5 mph7.2 kmh 29.55 in1000.7 mb 0.00 in0.0 mm 0.00 in0.0 mm 0.08 in2.0 mm
09:50 PM 61.5°F16.4°C 61.0°F16.1°C 98% 3.1 mph WNW5.0 kmh WNW 4.5 mph7.2 kmh 29.55 in1000.7 mb 0.00 in0.0 mm 0.00 in0.0 mm 0.08 in2.0 mm
10:00 PM 61.3°F16.3°C 60.8°F16.0°C 98% Calm Calm 3.8 mph6.1 kmh 29.55 in1000.7 mb 0.00 in0.0 mm 0.00 in0.0 mm 0.08 in2.0 mm
10:10 PM 61.3°F16.3°C 60.8°F16.0°C 98% 2.2 mph N3.5 kmh N 3.8 mph6.1 kmh 29.55 in1000.7 mb 0.00 in0.0 mm 0.00 in0.0 mm 0.08 in2.0 mm
10:20 PM 61.2°F16.2°C 60.6°F15.9°C 98% Calm Calm 3.8 mph6.1 kmh 29.56 in1001.0 mb 0.00 in0.0 mm 0.00 in0.0 mm 0.08 in2.0 mm
10:30 PM 60.6°F15.9°C 60.4°F15.8°C 99% Calm Calm 2.2 mph3.5 kmh 29.56 in1001.0 mb 0.00 in0.0 mm 0.00 in0.0 mm 0.08 in2.0 mm
10:40 PM 60.3°F15.7°C 60.0°F15.6°C 99% Calm Calm -- 29.55 in1000.7 mb 0.00 in0.0 mm 0.00 in0.0 mm 0.08 in2.0 mm
10:50 PM 60.1°F15.6°C 59.8°F15.4°C 99% Calm Calm -- 29.55 in1000.7 mb 0.00 in0.0 mm 0.00 in0.0 mm 0.08 in2.0 mm
11:00 PM 59.9°F15.5°C 59.6°F15.3°C 99% Calm Calm 2.2 mph3.5 kmh 29.55 in1000.7 mb 0.00 in0.0 mm 0.00 in0.0 mm 0.08 in2.0 mm
11:10 PM 59.9°F15.5°C 59.6°F15.3°C 99% Calm Calm 1.6 mph2.6 kmh 29.55 in1000.7 mb 0.00 in0.0 mm 0.00 in0.0 mm 0.08 in2.0 mm
11:20 PM 59.7°F15.4°C 59.5°F15.3°C 99% Calm Calm -- 29.54 in1000.3 mb 0.00 in0.0 mm 0.00 in0.0 mm 0.08 in2.0 mm
11:30 PM 59.5°F15.3°C 59.3°F15.2°C 99% Calm Calm -- 29.54 in1000.3 mb 0.00 in0.0 mm 0.00 in0.0 mm 0.08 in2.0 mm
11:40 PM 59.2°F15.1°C 58.9°F14.9°C 99% Calm Calm 2.2 mph3.5 kmh 29.54 in1000.3 mb 0.00 in0.0 mm 0.00 in0.0 mm 0.08 in2.0 mm
11:50 PM 59.0°F15.0°C 58.7°F14.8°C 99% Calm Calm -- 29.55 in1000.7 mb 0.00 in0.0 mm 0.00 in0.0 mm 0.08 in2.0 mm